This is the latest recevied weather packets stored in our database for station/object K4ZZR. If no packets are shown the sender has not sent any weather packets the latest 10 day(s).
| Time | Temp. | Humidity | Pressure | Rain* | Wind** | Luminosity | Snow |
|---|---|---|---|---|---|---|---|
| 1777328487 | 26.11° C | 80% | 1015.6 hPa | 0 mm | - | 140 W/m² | - |
| 1777328186 | 26.11° C | 80% | 1015.5 hPa | 0 mm | - | 199 W/m² | - |
| 1777327884 | 26.11° C | 80% | 1015.6 hPa | 0 mm | - | 209 W/m² | - |
| 1777327581 | 25.56° C | 80% | 1015.7 hPa | 0 mm | - | 227 W/m² | - |
| 1777327279 | 25.56° C | 80% | 1015.8 hPa | 0 mm | - | 251 W/m² | - |
| 1777326975 | 25.56° C | 79% | 1015.9 hPa | 0 mm | - | 277 W/m² | - |
| 1777326673 | 26.11° C | 79% | 1015.8 hPa | 0 mm | - | 301 W/m² | - |
| 1777326369 | 26.11° C | 78% | 1015.8 hPa | 0 mm | - | 319 W/m² | - |
| 1777326067 | 26.11° C | 79% | 1015.7 hPa | 0 mm | - | 343 W/m² | - |
| 1777325765 | 26.11° C | 80% | 1015.8 hPa | 0 mm | - | 382 W/m² | - |
| 1777325463 | 26.11° C | 80% | 1015.9 hPa | 0 mm | - | 435 W/m² | - |
| 1777325160 | 25.56° C | 82% | 1015.7 hPa | 0 mm | - | 476 W/m² | - |
| 1777324857 | 25.56° C | 83% | 1015.9 hPa | 0 mm | - | 182 W/m² | - |
| 1777324555 | 25.56° C | 83% | 1016.1 hPa | 0 mm | - | 122 W/m² | - |
| 1777324252 | 25.56° C | 81% | 1015.9 hPa | 0 mm | - | 108 W/m² | - |
| 1777323949 | 25.56° C | 82% | 1015.9 hPa | 0 mm | - | 136 W/m² | - |
| 1777323646 | 25.56° C | 82% | 1015.8 hPa | 0 mm | - | 148 W/m² | - |
| 1777323343 | 26.67° C | 78% | 1015.9 hPa | 0 mm | - | 227 W/m² | - |
| 1777323042 | 26.11° C | 79% | 1015.7 hPa | 0 mm | - | 643 W/m² | - |
| 1777322739 | 26.67° C | 78% | 1015.6 hPa | 0 mm | - | 598 W/m² | - |
| 1777322437 | 26.67° C | 79% | 1015.7 hPa | 0 mm | - | 647 W/m² | - |
| 1777322133 | 26.67° C | 80% | 1015.3 hPa | 0 mm | - | 636 W/m² | - |
| 1777321830 | 26.11° C | 80% | 1015.5 hPa | 0 mm | - | 664 W/m² | - |
| 1777321527 | 26.11° C | 80% | 1015.1 hPa | 0 mm | - | 659 W/m² | - |
| 1777321224 | 26.67° C | 77% | 1015.3 hPa | 0 mm | - | 680 W/m² | - |
* Rain latest hour (hover to see other rain measurements)
** Current wind speed in m/s (hover to see current wind gust speed)